Time;durP1;ratioP1;P1;durP2;ratioP2;P2;SDS_P1;SDS_P2;PMS_P1;PMS_P2;Temp;Humidity;BMP_temperature;BMP_pressure;BME280_temperature;BME280_humidity;BME280_pressure;Samples;Min_cycle;Max_cycle;Signal;HPM_P1;HPM_P2
2022/08/28 00:01:14;;;;;;;18.95;9.13;;;;;;;20.54;nan;100006.19;5054123;28;20371;-73
2022/08/28 00:03:41;;;;;;;14.48;8.93;;;;;;;20.51;nan;100022.03;5076676;28;20458;-72
2022/08/28 00:06:07;;;;;;;22.85;8.82;;;;;;;20.43;nan;100015.50;5063703;28;20017;-74
2022/08/28 00:08:32;;;;;;;20.05;8.80;;;;;;;;;;5070433;28;20040;-73
2022/08/28 00:10:58;;;;;;;19.80;9.40;;;;;;;20.46;nan;100027.47;5053410;28;20024;-74
2022/08/28 00:13:24;;;;;;;15.57;8.50;;;;;;;20.41;nan;100028.38;5075034;28;20038;-71
2022/08/28 00:15:55;;;;;;;15.18;7.57;;;;;;;20.37;nan;99979.25;5045596;28;20049;-71
2022/08/28 00:18:21;;;;;;;14.02;8.35;;;;;;;20.17;nan;100064.13;5052048;28;20021;-73
2022/08/28 00:20:48;;;;;;;18.02;8.23;;;;;;;20.19;nan;100013.84;5046027;28;20033;-71
2022/08/28 00:23:14;;;;;;;15.10;8.18;;;;;;;20.21;nan;100026.09;5057313;28;20031;-72
2022/08/28 00:25:40;;;;;;;16.40;7.80;;;;;;;20.11;nan;100005.72;5051705;28;20115;-72
2022/08/28 00:28:08;;;;;;;14.25;7.63;;;;;;;20.09;nan;100066.72;5048695;28;20056;-71
2022/08/28 00:30:34;;;;;;;19.02;8.45;;;;;;;20.17;nan;100036.63;5055212;28;20087;-71
2022/08/28 00:33:07;;;;;;;14.52;7.70;;;;;;;20.16;nan;100099.19;5057338;28;20024;-71
2022/08/28 00:35:33;;;;;;;18.25;7.72;;;;;;;;;;5050457;28;20037;-71
2022/08/28 00:37:58;;;;;;;20.40;8.05;;;;;;;20.02;nan;100069.00;5050888;28;20401;-72
2022/08/28 00:40:28;;;;;;;15.52;7.68;;;;;;;19.96;nan;100041.56;5049574;28;20033;-72
2022/08/28 00:42:55;;;;;;;15.80;7.95;;;;;;;19.88;nan;99949.53;5067259;28;20024;-72
2022/08/28 00:45:22;;;;;;;11.50;8.30;;;;;;;19.93;nan;100039.50;5065880;28;20028;-71
2022/08/28 00:47:48;;;;;;;17.98;8.43;;;;;;;19.84;nan;100033.25;5049472;28;20088;-72
2022/08/28 00:50:17;;;;;;;17.58;7.88;;;;;;;19.80;nan;100088.34;5050853;28;20088;-72
2022/08/28 00:52:50;;;;;;;21.80;8.05;;;;;;;19.71;nan;100065.00;5033593;28;20037;-72
2022/08/28 00:55:22;;;;;;;15.95;8.65;;;;;;;19.64;nan;100045.84;5055039;28;20021;-71
2022/08/28 00:57:51;;;;;;;14.63;7.82;;;;;;;19.62;nan;100018.63;5051522;28;20028;-70
2022/08/28 01:00:31;;;;;;;17.73;8.65;;;;;;;19.66;nan;100016.19;5052497;28;20032;-73
2022/08/28 01:02:57;;;;;;;17.15;7.90;;;;;;;19.69;nan;100019.06;5050491;28;20044;-71
2022/08/28 01:05:24;;;;;;;19.60;8.75;;;;;;;19.66;nan;99984.13;5070494;28;20028;-73
2022/08/28 01:07:50;;;;;;;12.80;7.63;;;;;;;19.63;nan;100070.97;5052501;28;20029;-72
2022/08/28 01:10:19;;;;;;;19.48;8.27;;;;;;;19.68;nan;100024.69;5054387;28;20029;-71
2022/08/28 01:12:45;;;;;;;;;;;;;;;19.65;nan;99995.88;5055101;28;20041;-71
2022/08/28 01:15:13;;;;;;;23.83;8.10;;;;;;;19.61;nan;100018.91;5065545;28;19928;-71
2022/08/28 01:17:40;;;;;;;17.27;8.00;;;;;;;;;;5074804;28;20029;-71
2022/08/28 01:20:11;;;;;;;13.43;7.88;;;;;;;19.50;nan;100031.66;5070152;28;20027;-71
2022/08/28 01:22:37;;;;;;;12.52;7.95;;;;;;;19.44;nan;100027.50;5068245;28;21204;-70
2022/08/28 01:25:06;;;;;;;12.73;8.02;;;;;;;19.33;nan;100000.19;5053428;28;20112;-72
2022/08/28 01:27:31;;;;;;;11.32;7.28;;;;;;;19.25;nan;100019.53;5071966;28;20033;-72
2022/08/28 01:29:56;;;;;;;14.90;7.93;;;;;;;19.19;nan;100056.19;5073391;28;20031;-72
2022/08/28 01:32:36;;;;;;;19.67;8.52;;;;;;;19.17;nan;100062.91;5067636;28;20020;-71
2022/08/28 01:35:03;;;;;;;19.08;9.13;;;;;;;19.16;nan;100027.41;5069268;28;20387;-71
2022/08/28 01:37:30;;;;;;;19.80;8.60;;;;;;;19.09;nan;100002.97;5064762;28;20056;-71
2022/08/28 01:39:56;;;;;;;20.23;8.45;;;;;;;19.13;nan;100036.00;5063723;28;20527;-71
2022/08/28 01:42:24;;;;;;;13.45;7.80;;;;;;;19.04;nan;100019.06;5068006;28;20024;-71
2022/08/28 01:44:51;;;;;;;18.70;7.93;;;;;;;18.90;nan;100003.78;5052210;28;20440;-71
2022/08/28 01:47:17;;;;;;;21.35;8.30;;;;;;;18.90;nan;99987.78;5067403;28;20070;-73
2022/08/28 01:49:42;;;;;;;17.17;8.45;;;;;;;18.87;nan;100049.72;5063732;28;20434;-72
2022/08/28 01:52:08;;;;;;;20.77;8.02;;;;;;;18.87;nan;100059.59;5068534;28;20034;-72
2022/08/28 01:54:33;;;;;;;18.20;8.00;;;;;;;;;;5064417;28;20032;-72
2022/08/28 01:56:59;;;;;;;17.75;8.20;;;;;;;18.78;nan;100003.44;5071238;28;20149;-72
2022/08/28 01:59:24;;;;;;;15.27;7.38;;;;;;;18.78;nan;100010.66;5068220;28;20544;-73
2022/08/28 02:01:49;;;;;;;15.02;7.45;;;;;;;18.76;nan;100016.25;5058524;28;20098;-73
2022/08/28 02:04:15;;;;;;;14.13;7.03;;;;;;;18.73;nan;100016.81;5053877;28;20451;-72
2022/08/28 02:06:40;;;;;;;15.73;7.40;;;;;;;;;;5065430;28;20021;-72
2022/08/28 02:09:06;;;;;;;16.38;7.30;;;;;;;18.75;nan;100001.31;5065851;28;21186;-71
2022/08/28 02:11:32;;;;;;;16.30;7.55;;;;;;;18.75;nan;100036.00;5060431;28;20035;-72
2022/08/28 02:13:59;;;;;;;12.68;7.15;;;;;;;18.70;nan;100012.06;5053630;28;20127;-72
2022/08/28 02:16:24;;;;;;;13.45;7.50;;;;;;;18.68;nan;100020.34;5047970;28;20029;-72
2022/08/28 02:18:50;;;;;;;14.77;7.43;;;;;;;;;;5067347;28;20034;-72
2022/08/28 02:21:16;;;;;;;14.48;7.35;;;;;;;18.75;nan;100013.84;5051177;28;20028;-72
2022/08/28 02:23:42;;;;;;;14.73;7.18;;;;;;;18.74;nan;100017.59;5065320;28;20033;-72
2022/08/28 02:26:09;;;;;;;17.77;8.02;;;;;;;18.80;nan;100017.28;5073030;28;20122;-72
2022/08/28 02:28:36;;;;;;;14.02;6.75;;;;;;;18.78;nan;100013.31;5048906;28;20110;-72
2022/08/28 02:31:02;;;;;;;19.30;7.68;;;;;;;18.79;nan;100018.34;5046983;28;20028;-73
2022/08/28 02:33:28;;;;;;;13.57;7.38;;;;;;;18.74;nan;100006.94;5064684;28;20435;-72
2022/08/28 02:35:53;;;;;;;15.75;7.32;;;;;;;;;;5064654;28;20032;-73
2022/08/28 02:38:19;;;;;;;13.40;7.40;;;;;;;18.80;nan;100013.81;5053745;28;20067;-71
2022/08/28 02:40:45;;;;;;;19.42;7.78;;;;;;;18.77;nan;100020.53;5047231;28;20283;-73
2022/08/28 02:43:10;;;;;;;14.65;7.00;;;;;;;18.66;nan;100081.19;5049864;28;20068;-73
2022/08/28 02:45:36;;;;;;;18.15;7.72;;;;;;;18.54;nan;100022.13;5071062;28;20016;-73
2022/08/28 02:48:02;;;;;;;15.25;7.50;;;;;;;18.50;nan;99970.47;5070767;28;20154;-70
2022/08/28 02:50:29;;;;;;;15.60;7.10;;;;;;;18.49;nan;100038.22;5070632;28;20028;-71
2022/08/28 02:52:55;;;;;;;15.85;7.88;;;;;;;18.41;nan;100010.31;5068115;28;20028;-70
2022/08/28 02:55:21;;;;;;;15.90;7.22;;;;;;;;;;5070007;28;20558;-74
2022/08/28 02:57:47;;;;;;;22.35;7.50;;;;;;;18.30;nan;100059.50;5066759;28;20032;-74
2022/08/28 03:00:20;;;;;;;12.82;7.03;;;;;;;18.32;nan;100029.91;5069351;28;20359;-74
2022/08/28 03:02:46;;;;;;;18.63;7.15;;;;;;;18.25;nan;100017.69;5074432;28;20047;-73
2022/08/28 03:05:13;;;;;;;16.90;7.20;;;;;;;18.29;nan;100039.22;5066575;28;20470;-73
2022/08/28 03:07:38;;;;;;;12.82;7.30;;;;;;;18.28;nan;100046.44;5073261;28;20036;-73
2022/08/28 03:10:05;;;;;;;13.52;7.30;;;;;;;;;;5072632;28;20025;-73
2022/08/28 03:12:31;;;;;;;18.52;7.35;;;;;;;18.11;nan;100038.13;5065559;28;20039;-73
2022/08/28 03:14:57;;;;;;;19.30;8.30;;;;;;;18.07;nan;100037.09;5049198;28;20049;-73
2022/08/28 03:17:22;;;;;;;17.02;7.45;;;;;;;;;;5065938;28;20025;-74
2022/08/28 03:19:51;;;;;;;16.02;6.78;;;;;;;18.01;nan;100043.56;5071007;28;20059;-74
2022/08/28 03:23:24;;;;;;;17.17;7.72;;;;;;;18.04;nan;100056.31;5063130;28;20028;-74
2022/08/28 03:25:02;;;;;;;12.65;6.65;;;;;;;;;;5068934;28;20098;-74
2022/08/28 03:27:28;;;;;;;17.35;7.20;;;;;;;17.98;nan;100020.94;5064561;28;20032;-73
2022/08/28 03:29:53;;;;;;;14.13;7.68;;;;;;;18.02;nan;100045.16;5070115;28;20116;-74
2022/08/28 03:32:18;;;;;;;16.25;7.43;;;;;;;17.97;nan;100085.16;5052293;28;20479;-74
2022/08/28 03:34:44;;;;;;;15.45;6.97;;;;;;;18.02;nan;99982.00;5071317;28;20081;-72
2022/08/28 03:37:09;;;;;;;16.00;6.63;;;;;;;18.06;nan;100070.94;5048690;28;20123;-72
2022/08/28 03:39:35;;;;;;;14.05;7.07;;;;;;;18.03;nan;100062.72;5055454;28;20077;-72
2022/08/28 03:42:00;;;;;;;14.25;7.07;;;;;;;17.89;nan;100051.16;5047369;28;20031;-72
2022/08/28 03:44:25;;;;;;;16.65;7.60;;;;;;;17.97;nan;99994.59;5066613;28;20024;-72
2022/08/28 03:46:51;;;;;;;16.58;6.95;;;;;;;18.03;nan;100070.72;5068762;28;20527;-72
2022/08/28 03:49:16;;;;;;;12.27;7.30;;;;;;;18.00;nan;100079.25;5053131;28;20035;-71
2022/08/28 03:51:42;;;;;;;15.48;7.22;;;;;;;17.95;nan;100053.47;5052159;28;20092;-72
2022/08/28 03:54:07;;;;;;;18.40;7.53;;;;;;;17.98;nan;100068.91;5050703;28;20029;-72
2022/08/28 03:56:33;;;;;;;17.33;7.55;;;;;;;;;;5068754;28;21835;-71
2022/08/28 03:59:00;;;;;;;18.80;7.55;;;;;;;17.90;nan;100061.50;5064557;28;20017;-72
2022/08/28 04:01:25;;;;;;;16.42;7.20;;;;;;;;;;5050148;28;20490;-73
2022/08/28 04:03:51;;;;;;;16.38;7.32;;;;;;;;;;5068178;28;20146;-73
2022/08/28 04:06:17;;;;;;;20.43;8.03;;;;;;;17.79;nan;100058.13;5073143;28;20035;-72
2022/08/28 04:08:42;;;;;;;23.63;7.63;;;;;;;;;;5066320;28;20278;-72
2022/08/28 04:11:08;;;;;;;16.17;7.45;;;;;;;17.67;nan;100134.13;5070347;28;20021;-73
2022/08/28 04:13:34;;;;;;;15.90;6.82;;;;;;;17.70;nan;100069.69;5057061;28;20032;-72
2022/08/28 04:16:09;;;;;;;18.65;7.35;;;;;;;17.73;nan;100080.56;5048450;28;20049;-72
2022/08/28 04:18:36;;;;;;;15.23;7.40;;;;;;;17.74;nan;100121.28;5049666;28;20098;-72
2022/08/28 04:21:25;;;;;;;12.82;6.95;;;;;;;17.77;nan;100078.13;5053676;28;20518;-73
2022/08/28 04:23:52;;;;;;;17.83;7.13;;;;;;;17.75;nan;100072.28;5050753;28;20031;-72
2022/08/28 04:26:24;;;;;;;15.70;6.90;;;;;;;17.79;nan;100089.28;5052865;28;20027;-72
2022/08/28 04:28:49;;;;;;;20.27;7.88;;;;;;;17.77;nan;100086.91;5052228;28;20390;-72
2022/08/28 04:31:16;;;;;;;16.75;8.27;;;;;;;17.79;nan;100087.44;5052771;28;20041;-71
2022/08/28 04:33:41;;;;;;;15.63;7.32;;;;;;;;;;5054645;28;20115;-71
2022/08/28 04:36:11;;;;;;;12.70;7.03;;;;;;;;;;5052247;28;20119;-72
2022/08/28 04:38:38;;;;;;;10.18;6.32;;;;;;;17.87;nan;100139.34;5047660;28;20032;-72
2022/08/28 04:41:04;;;;;;;15.40;7.30;;;;;;;;;;5053200;28;20032;-73
2022/08/28 04:43:29;;;;;;;13.82;6.82;;;;;;;;;;5047341;28;20033;-72
2022/08/28 04:45:55;;;;;;;13.43;7.57;;;;;;;18.00;nan;100092.59;5050342;28;20083;-71
2022/08/28 04:48:20;;;;;;;14.65;6.95;;;;;;;18.01;nan;100064.88;5053688;28;20296;-72
2022/08/28 04:50:47;;;;;;;10.13;6.95;;;;;;;;;;5049660;28;20055;-72
2022/08/28 04:53:15;;;;;;;18.48;7.50;;;;;;;18.10;nan;100081.84;5046717;28;20391;-72
2022/08/28 04:55:42;;;;;;;13.63;7.38;;;;;;;;;;5049531;28;20374;-70
2022/08/28 04:58:07;;;;;;;16.42;7.00;;;;;;;;;;5051039;28;20036;-70
2022/08/28 05:00:33;;;;;;;13.73;6.57;;;;;;;18.24;nan;100098.75;5048845;28;20032;-71
2022/08/28 05:02:59;;;;;;;17.45;7.03;;;;;;;18.30;nan;100104.81;5049889;28;20330;-71
2022/08/28 05:05:24;;;;;;;17.00;7.43;;;;;;;18.33;nan;100088.25;5051628;28;20032;-72
2022/08/28 05:07:50;;;;;;;16.15;7.72;;;;;;;18.39;nan;100095.13;5048264;28;20033;-74
2022/08/28 05:10:15;;;;;;;18.05;7.00;;;;;;;;;;5045793;28;20021;-73
2022/08/28 05:12:40;;;;;;;43.53;28.40;;;;;;;18.52;nan;100090.16;5047755;28;20033;-74
2022/08/28 05:15:06;;;;;;;15.23;9.85;;;;;;;18.64;nan;100147.34;5062387;28;20041;-72
2022/08/28 05:17:32;;;;;;;13.48;7.50;;;;;;;18.77;nan;100063.22;5054716;28;20049;-73
2022/08/28 05:19:57;;;;;;;17.23;7.68;;;;;;;;;;5071089;28;20387;-74
2022/08/28 05:22:23;;;;;;;13.63;6.95;;;;;;;18.90;nan;100163.88;5050539;28;20394;-73
2022/08/28 05:24:48;;;;;;;12.85;7.15;;;;;;;;;;5071080;28;20102;-75
2022/08/28 05:27:13;;;;;;;18.80;8.07;;;;;;;19.17;nan;100111.75;5070807;28;20021;-70
2022/08/28 05:29:39;;;;;;;17.60;7.20;;;;;;;19.10;nan;100101.41;5070582;28;20103;-72
2022/08/28 05:32:04;;;;;;;16.05;7.03;;;;;;;;;;5051567;28;20042;-71
2022/08/28 05:34:30;;;;;;;14.25;7.43;;;;;;;;;;5072847;28;20055;-73
2022/08/28 05:36:55;;;;;;;15.75;7.22;;;;;;;19.41;nan;100127.66;5067937;28;20024;-73
2022/08/28 05:39:21;;;;;;;13.63;7.07;;;;;;;19.54;nan;100126.16;5047865;28;20489;-74
2022/08/28 05:41:46;;;;;;;17.27;8.30;;;;;;;19.62;nan;100191.47;5049966;28;20021;-73
2022/08/28 05:44:13;;;;;;;19.65;7.43;;;;;;;19.70;nan;100130.19;5066991;28;20499;-73
2022/08/28 05:46:42;;;;;;;16.20;8.20;;;;;;;19.80;nan;100147.13;5066075;28;20017;-74
2022/08/28 05:49:08;;;;;;;17.13;7.35;;;;;;;19.82;nan;100139.63;5069970;28;20028;-74
2022/08/28 05:51:35;;;;;;;20.02;7.75;;;;;;;19.95;nan;100153.03;5068724;28;20029;-73
2022/08/28 05:54:02;;;;;;;14.05;7.18;;;;;;;20.02;nan;100163.34;5066259;28;20033;-70
2022/08/28 05:56:29;;;;;;;18.10;7.28;;;;;;;;;;5061375;28;20048;-71
2022/08/28 05:58:55;;;;;;;13.50;7.50;;;;;;;20.15;nan;100130.47;5051555;28;20032;-74
2022/08/28 06:01:27;;;;;;;13.98;8.13;;;;;;;20.25;nan;100155.44;5063468;28;20605;-71
2022/08/28 06:03:56;;;;;;;14.50;7.47;;;;;;;20.42;nan;100154.88;5064218;28;20032;-71
2022/08/28 06:06:23;;;;;;;19.33;8.27;;;;;;;20.55;nan;100138.84;5069870;28;20465;-73
2022/08/28 06:08:50;;;;;;;19.80;8.15;;;;;;;20.60;nan;100119.25;5068661;28;20024;-74
2022/08/28 06:11:19;;;;;;;17.85;7.82;;;;;;;20.74;nan;100165.50;5065694;28;20025;-74
2022/08/28 06:13:44;;;;;;;17.30;7.95;;;;;;;20.80;nan;100101.97;5051382;28;20487;-73
2022/08/28 06:16:11;;;;;;;17.95;7.80;;;;;;;20.93;nan;100293.09;5063512;28;20028;-74
2022/08/28 06:18:36;;;;;;;19.50;8.00;;;;;;;;;;5069827;28;20043;-74
2022/08/28 06:21:02;;;;;;;16.20;7.10;;;;;;;21.13;nan;100169.50;5049087;28;20033;-74
2022/08/28 06:23:28;;;;;;;19.17;7.72;;;;;;;21.24;nan;100170.88;5048262;28;20024;-74
2022/08/28 06:25:54;;;;;;;13.43;7.60;;;;;;;21.34;nan;100174.44;5061476;28;20402;-73
2022/08/28 06:28:22;;;;;;;20.95;8.40;;;;;;;21.39;nan;100172.44;5068040;28;20033;-73
2022/08/28 06:30:48;;;;;;;16.40;7.72;;;;;;;21.54;nan;100167.84;5068915;28;20020;-72
2022/08/28 06:33:15;;;;;;;20.20;8.13;;;;;;;21.66;nan;100165.41;5064114;28;20036;-72
2022/08/28 06:35:42;;;;;;;15.52;8.13;;;;;;;21.75;nan;100174.28;5070085;28;20025;-72
2022/08/28 06:38:08;;;;;;;18.77;8.52;;;;;;;21.81;nan;100145.47;5062671;28;20028;-73
2022/08/28 06:40:41;;;;;;;13.55;7.78;;;;;;;21.92;nan;100167.47;5067883;28;20126;-72
2022/08/28 06:43:08;;;;;;;14.30;8.07;;;;;;;21.93;nan;100169.81;5069479;28;20024;-72
2022/08/28 06:45:38;;;;;;;18.40;8.35;;;;;;;22.00;nan;100153.31;5067398;28;20020;-73
2022/08/28 06:48:03;;;;;;;16.55;8.15;;;;;;;;;;5063520;28;20078;-73
2022/08/28 06:50:29;;;;;;;19.17;8.40;;;;;;;;;;5079879;28;20028;-73
2022/08/28 06:52:54;;;;;;;20.40;8.37;;;;;;;22.20;nan;100138.59;5069790;28;20024;-73
2022/08/28 06:55:19;;;;;;;15.75;7.95;;;;;;;;;;5066054;28;20724;-73
2022/08/28 06:57:45;;;;;;;12.97;7.83;;;;;;;22.41;nan;100157.63;5064568;28;20110;-73
2022/08/28 07:00:11;;;;;;;21.63;8.43;;;;;;;22.43;nan;100145.47;5066590;28;20024;-73
2022/08/28 07:02:36;;;;;;;14.27;8.55;;;;;;;22.54;nan;100175.50;5064867;28;20025;-73
2022/08/28 07:05:02;;;;;;;18.98;8.63;;;;;;;22.61;nan;100158.97;5068656;28;20043;-73
2022/08/28 07:07:27;;;;;;;23.10;9.15;;;;;;;22.70;nan;100176.69;5046014;28;20064;-73
2022/08/28 07:09:53;;;;;;;19.70;8.98;;;;;;;22.81;nan;100179.06;5072608;28;20028;-73
2022/08/28 07:12:18;;;;;;;19.98;9.45;;;;;;;22.83;nan;100174.97;5067153;28;20489;-72
2022/08/28 07:14:43;;;;;;;19.45;8.90;;;;;;;22.94;nan;100194.28;5069325;28;20097;-73
2022/08/28 07:17:09;;;;;;;15.88;8.57;;;;;;;;;;5063531;28;20036;-73
2022/08/28 07:19:34;;;;;;;22.17;9.95;;;;;;;23.14;nan;100235.88;5035471;28;20545;-73
2022/08/28 07:22:00;;;;;;;16.85;9.75;;;;;;;23.30;nan;100171.75;5068482;28;20084;-73
2022/08/28 07:24:28;;;;;;;17.17;9.70;;;;;;;23.40;nan;100187.56;5063618;28;20029;-73
2022/08/28 07:26:54;;;;;;;22.92;10.20;;;;;;;23.50;nan;100184.53;5059738;28;20025;-73
2022/08/28 07:29:19;;;;;;;16.60;9.27;;;;;;;23.56;nan;100137.59;5069524;28;20051;-72
2022/08/28 07:31:48;;;;;;;18.20;9.80;;;;;;;23.70;nan;100196.53;5050818;28;20166;-72
2022/08/28 07:34:15;;;;;;;20.37;10.23;;;;;;;23.79;nan;100140.09;5063516;28;20036;-72
2022/08/28 07:36:41;;;;;;;18.98;10.25;;;;;;;23.84;nan;100174.09;5048509;28;20021;-73
2022/08/28 07:39:08;;;;;;;24.50;9.48;;;;;;;23.99;nan;100203.16;5063809;28;20043;-72
2022/08/28 07:41:37;;;;;;;14.63;9.38;;;;;;;24.08;nan;100184.31;5066956;28;20027;-73
2022/08/28 07:46:51;;;;;;;17.67;9.10;;;;;;;24.28;nan;100189.03;5065016;28;20027;-71
2022/08/28 07:49:17;;;;;;;;;;;;;;;24.43;nan;100190.41;5071958;28;20024;-72
2022/08/28 07:51:42;;;;;;;22.08;10.80;;;;;;;24.51;nan;100148.41;5048268;28;19939;-72
2022/08/28 07:54:08;;;;;;;19.02;9.82;;;;;;;24.56;nan;100157.09;5045077;28;20085;-73
2022/08/28 07:56:39;;;;;;;20.52;10.32;;;;;;;24.71;nan;100188.06;5065398;28;20029;-72
2022/08/28 07:59:06;;;;;;;30.25;10.30;;;;;;;24.80;nan;100129.56;5068268;28;20032;-73
2022/08/28 08:01:39;;;;;;;24.23;11.10;;;;;;;24.93;nan;100230.09;5065730;28;20091;-73
2022/08/28 08:04:08;;;;;;;22.30;10.75;;;;;;;25.00;nan;100138.78;5070961;28;20032;-73
2022/08/28 08:06:36;;;;;;;22.55;10.95;;;;;;;25.16;nan;100181.28;5062948;28;20028;-73
2022/08/28 08:09:03;;;;;;;18.75;10.93;;;;;;;25.24;nan;100250.56;5049557;28;20128;-72
2022/08/28 08:11:29;;;;;;;18.55;9.90;;;;;;;25.33;nan;100173.13;5062158;28;20065;-72
2022/08/28 08:13:56;;;;;;;17.05;10.00;;;;;;;25.41;nan;100188.41;5068286;28;20052;-73
2022/08/28 08:16:23;;;;;;;18.63;9.98;;;;;;;25.57;nan;100158.97;5065942;28;20082;-73
2022/08/28 08:18:49;;;;;;;19.65;9.95;;;;;;;25.63;nan;100208.84;5052399;28;20031;-74
2022/08/28 08:21:18;;;;;;;19.92;10.57;;;;;;;25.83;nan;100184.88;5065287;28;20035;-73
2022/08/28 08:23:45;;;;;;;21.20;10.43;;;;;;;25.92;nan;100172.09;5050402;28;20032;-71
2022/08/28 08:26:16;;;;;;;19.70;10.90;;;;;;;26.04;nan;100150.53;5063150;28;20083;-72
2022/08/28 08:28:42;;;;;;;13.75;9.73;;;;;;;26.15;nan;100136.63;5066126;28;20502;-72
2022/08/28 08:31:20;;;;;;;17.48;9.48;;;;;;;26.33;nan;100200.06;5067749;28;20085;-72
2022/08/28 08:33:49;;;;;;;24.50;10.25;;;;;;;26.43;nan;100174.53;5065825;28;20025;-72
2022/08/28 08:36:17;;;;;;;17.27;9.40;;;;;;;26.50;nan;100194.44;5067684;28;20028;-71
2022/08/28 08:38:43;;;;;;;17.98;9.40;;;;;;;26.61;nan;100213.72;5072192;28;20028;-72
2022/08/28 08:41:22;;;;;;;19.55;9.80;;;;;;;26.74;nan;100179.38;5066173;28;20033;-72
2022/08/28 08:43:56;;;;;;;21.20;9.30;;;;;;;26.85;nan;100194.03;5058862;28;20025;-72
2022/08/28 08:46:30;;;;;;;23.70;8.90;;;;;;;26.85;nan;100172.41;5061808;28;20029;-71
2022/08/28 08:49:00;;;;;;;17.45;9.20;;;;;;;27.01;nan;100142.78;5063906;28;20029;-72
2022/08/28 08:51:38;;;;;;;22.48;9.30;;;;;;;27.02;nan;100165.94;5065031;28;20035;-71
2022/08/28 08:54:09;;;;;;;16.73;8.85;;;;;;;27.19;nan;100180.34;5049197;28;20021;-72
2022/08/28 08:56:35;;;;;;;17.75;8.38;;;;;;;27.31;nan;100181.09;5049391;28;20030;-72
2022/08/28 08:59:03;;;;;;;19.10;8.90;;;;;;;27.40;nan;100194.50;5049699;28;20098;-73
2022/08/28 09:01:44;;;;;;;20.20;9.10;;;;;;;27.52;nan;100201.78;5063378;28;20056;-73
2022/08/28 09:04:38;;;;;;;14.48;8.43;;;;;;;27.62;nan;100173.44;5065396;28;20067;-73
2022/08/28 09:07:17;;;;;;;21.88;9.13;;;;;;;27.70;nan;100200.34;5046372;28;20025;-73
2022/08/28 09:09:49;;;;;;;18.15;8.55;;;;;;;27.81;nan;100180.91;5067703;28;20103;-73
2022/08/28 09:12:18;;;;;;;17.92;8.73;;;;;;;27.86;nan;100195.00;5066063;28;20028;-73
2022/08/28 09:15:43;;;;;;;12.20;8.00;;;;;;;28.00;nan;100178.34;5068877;28;20406;-73
2022/08/28 09:18:18;;;;;;;17.83;8.60;;;;;;;28.11;nan;100211.06;5007759;28;20042;-73
2022/08/28 09:20:48;;;;;;;15.00;8.52;;;;;;;28.26;nan;100185.16;5011809;28;20113;-74
2022/08/28 09:23:14;;;;;;;15.32;8.57;;;;;;;28.28;nan;100175.56;5007299;28;20568;-72
2022/08/28 09:25:58;;;;;;;17.27;8.45;;;;;;;28.40;nan;100193.63;5004549;28;20104;-73
2022/08/28 09:28:25;;;;;;;18.33;7.90;;;;;;;28.49;nan;100207.00;5006106;28;20104;-73
2022/08/28 09:30:57;;;;;;;13.15;8.48;;;;;;;28.51;nan;100164.91;5006930;28;20597;-73
2022/08/28 09:33:37;;;;;;;17.75;9.07;;;;;;;28.65;nan;100231.41;5003954;28;20116;-73
2022/08/28 09:36:28;;;;;;;17.48;8.30;;;;;;;28.77;nan;100206.91;5008894;28;20034;-73
2022/08/28 09:39:18;;;;;;;18.02;8.05;;;;;;;28.83;nan;100170.28;5003642;28;20046;-73
2022/08/28 09:44:59;;;;;;;12.95;7.57;;;;;;;28.97;nan;100208.53;5006322;28;20068;-72
2022/08/28 09:47:43;;;;;;;;;;;;;;;29.11;nan;100191.00;5008057;28;20121;-74
2022/08/28 09:50:32;;;;;;;14.48;7.65;;;;;;;29.19;nan;100198.16;5070316;28;19965;-73
2022/08/28 09:53:13;;;;;;;;;;;;;;;29.25;nan;100189.38;5068496;28;20059;-74
2022/08/28 09:56:09;;;;;;;15.15;7.75;;;;;;;29.31;nan;100195.31;5067480;28;19909;-73
2022/08/28 09:58:37;;;;;;;13.38;7.80;;;;;;;;;;5068114;28;20482;-73
2022/08/28 10:01:31;;;;;;;15.68;6.57;;;;;;;29.48;nan;100194.09;5068710;28;20115;-73
2022/08/28 10:04:15;;;;;;;15.18;7.05;;;;;;;29.60;nan;100198.59;5063223;28;20051;-73
2022/08/28 10:06:53;;;;;;;15.77;7.15;;;;;;;29.68;nan;100182.09;5069032;28;20170;-73
2022/08/28 10:09:31;;;;;;;17.90;7.20;;;;;;;29.74;nan;100177.19;5066698;28;20028;-73
2022/08/28 10:12:41;;;;;;;12.55;6.45;;;;;;;29.81;nan;100198.22;5060555;28;20144;-74
2022/08/28 10:15:12;;;;;;;15.77;6.35;;;;;;;29.89;nan;100197.22;5038451;28;20045;-73
2022/08/28 10:18:04;;;;;;;9.63;6.43;;;;;;;29.94;nan;100205.06;5069289;28;20024;-74
2022/08/28 10:20:37;;;;;;;20.23;7.13;;;;;;;30.00;nan;100197.38;5041285;28;20036;-73
2022/08/28 10:23:32;;;;;;;15.13;6.50;;;;;;;30.10;nan;100173.13;5070532;28;20100;-70
2022/08/28 10:26:15;;;;;;;17.75;6.25;;;;;;;30.18;nan;100197.69;5049031;28;20037;-74
2022/08/28 10:29:10;;;;;;;10.35;6.18;;;;;;;30.24;nan;100179.94;5068986;28;20028;-73
2022/08/28 10:32:15;;;;;;;11.32;6.35;;;;;;;30.33;nan;100183.22;5056285;28;20499;-72
2022/08/28 10:34:49;;;;;;;13.52;6.18;;;;;;;30.42;nan;100178.31;5049616;28;20024;-73
2022/08/28 10:37:29;;;;;;;15.32;6.18;;;;;;;30.50;nan;100173.78;5062973;28;20025;-73
2022/08/28 10:39:57;;;;;;;14.48;5.90;;;;;;;30.53;nan;100182.00;5067878;28;20017;-73
2022/08/28 10:42:32;;;;;;;7.38;5.07;;;;;;;30.60;nan;100154.16;5071755;28;20094;-73
2022/08/28 10:45:13;;;;;;;17.98;6.10;;;;;;;30.69;nan;100162.78;5074695;28;20059;-73
2022/08/28 10:47:43;;;;;;;14.43;5.85;;;;;;;30.78;nan;100197.88;5067661;28;20454;-74
2022/08/28 10:50:22;;;;;;;16.90;5.50;;;;;;;30.85;nan;100151.00;5062757;28;20016;-75
2022/08/28 10:52:54;;;;;;;12.75;5.20;;;;;;;30.92;nan;100145.66;5064771;28;20020;-73
2022/08/28 10:55:24;;;;;;;11.75;5.30;;;;;;;31.05;nan;100157.06;5059460;28;20387;-74
2022/08/28 10:57:56;;;;;;;11.30;5.10;;;;;;;31.13;nan;100158.75;5064987;28;20028;-74
2022/08/28 11:00:25;;;;;;;9.30;4.32;;;;;;;31.15;nan;100170.81;5053224;28;20024;-73
2022/08/28 11:03:03;;;;;;;8.43;5.07;;;;;;;31.22;nan;100147.56;5063443;28;20021;-74
2022/08/28 11:05:47;;;;;;;8.10;3.70;;;;;;;31.33;nan;100151.19;5064502;28;20036;-74
2022/08/28 11:08:30;;;;;;;12.85;4.00;;;;;;;31.42;nan;100159.88;5062311;28;20429;-74
2022/08/28 11:10:59;;;;;;;10.25;4.25;;;;;;;31.44;nan;100154.06;5068153;28;20096;-72
2022/08/28 11:13:43;;;;;;;12.95;5.30;;;;;;;31.53;nan;100149.88;5062661;28;20103;-74
2022/08/28 11:16:19;;;;;;;17.70;4.88;;;;;;;31.59;nan;100136.72;5065175;28;20028;-76
2022/08/28 11:18:59;;;;;;;15.27;4.70;;;;;;;31.67;nan;100145.72;5045864;28;20028;-77
2022/08/28 11:21:27;;;;;;;8.75;4.22;;;;;;;31.74;nan;100154.75;5071370;28;20442;-75
2022/08/28 11:24:30;;;;;;;6.07;3.97;;;;;;;31.73;nan;100130.63;5069666;28;20085;-74
2022/08/28 11:27:15;;;;;;;12.90;4.22;;;;;;;31.91;nan;100145.16;5036256;28;20032;-72
2022/08/28 11:30:00;;;;;;;11.60;5.22;;;;;;;31.86;nan;100153.69;5059616;28;20033;-71
2022/08/28 11:32:55;;;;;;;10.15;4.45;;;;;;;31.88;nan;100192.22;5049666;28;20028;-72
2022/08/28 11:35:29;;;;;;;11.02;4.20;;;;;;;31.99;nan;100148.78;5049700;28;20040;-72
2022/08/28 11:37:56;;;;;;;7.50;4.28;;;;;;;32.03;nan;100148.81;5066346;28;20049;-71
2022/08/28 11:40:31;;;;;;;11.10;3.88;;;;;;;32.12;nan;100132.94;5067560;28;20081;-71
2022/08/28 11:43:14;;;;;;;10.13;3.80;;;;;;;32.13;nan;100138.00;5063782;28;20039;-72
2022/08/28 11:45:44;;;;;;;10.20;3.42;;;;;;;32.17;nan;100135.28;5064664;28;20020;-71
2022/08/28 11:48:21;;;;;;;8.48;3.70;;;;;;;32.29;nan;100142.38;5050103;28;20115;-74
2022/08/28 11:51:25;;;;;;;7.83;3.83;;;;;;;32.32;nan;100109.69;5064608;28;20038;-74
2022/08/28 11:54:09;;;;;;;8.23;3.90;;;;;;;32.39;nan;100137.00;5053892;28;20517;-75
2022/08/28 11:57:00;;;;;;;9.48;3.80;;;;;;;32.49;nan;100113.69;5064314;28;20040;-75
2022/08/28 11:59:25;;;;;;;7.75;3.55;;;;;;;32.59;nan;100129.38;5048084;28;20025;-75
2022/08/28 12:01:51;;;;;;;9.20;3.95;;;;;;;32.63;nan;100093.94;5053744;28;20028;-75
2022/08/28 12:04:22;;;;;;;8.00;3.63;;;;;;;32.68;nan;100100.97;5062486;28;20374;-75
2022/08/28 12:06:53;;;;;;;11.27;3.55;;;;;;;32.63;nan;100115.75;5069410;28;20028;-75
2022/08/28 12:09:24;;;;;;;9.80;3.50;;;;;;;32.69;nan;100119.69;5065819;28;20032;-76
2022/08/28 12:11:53;;;;;;;6.30;3.47;;;;;;;32.82;nan;100109.22;5069648;28;20028;-74